• Join FlightAware (Why Join?)
  • Login
  • US Flag 
07:38AM EDT


 

Airport Tracker/Info


-or-


 

Live Flight TrackerFlight Track Log ✈ TAM3082 ✈ 18-Aug-2013 ✈ SBUL / UDI - SBSP / CGH

Flight Track Log - Related Links

Times and Time Zones

All times are in EDT time to prevent confusion due to time zone crossing. See the TAM3082 flight status page for this flight to view local times or setup timezone preferences in your user account.

Time Position Orientation Groundspeed Altitude Reporting Facility
EDT Latitude Longitude Course Direction KTS MPH feet Rate Location/Type
12:00PM -20.6342 -47.6581 163° South  Level Estimated
12:01PM -20.7072 -47.6341 163° South  Level Estimated
12:02PM -20.7801 -47.6102 163° South  Level Estimated
12:03PM -20.8530 -47.5862 163° South  Level Estimated
12:04PM -20.9259 -47.5622 163° South  Level Estimated
12:05PM -20.9989 -47.5382 163° South  Level Estimated
12:06PM -21.0718 -47.5142 163° South  Level Estimated
12:07PM -21.1447 -47.4901 163° South  Level Estimated
12:08PM -21.2176 -47.4660 163° South  Level Estimated
12:09PM -21.2905 -47.4419 163° South  Level Estimated
12:10PM -21.3634 -47.4178 163° South  Level Estimated
12:11PM -21.4363 -47.3936 163° South  Level Estimated
12:12PM -21.5092 -47.3694 163° South  Level Estimated
12:13PM -21.5821 -47.3452 163° South  Level Estimated
12:14PM -21.6550 -47.3210 163° South  Level Estimated
12:15PM -21.7279 -47.2967 163° South  Level Estimated
12:16PM -21.8008 -47.2725 163° South  Level Estimated
12:17PM -21.8736 -47.2481 163° South  Level Estimated
12:18PM -21.9465 -47.2238 163° South  Level Estimated
12:19PM -22.0194 -47.1995 163° South  Level Estimated
12:20PM -22.0923 -47.1751 163° South  Level Estimated
12:21PM -22.1651 -47.1507 163° South  Level Estimated
12:22PM -22.2380 -47.1262 163° South  Level Estimated
12:23PM -22.3109 -47.1018 163° South  Level Estimated
12:24PM -22.3837 -47.0773 163° South  Level Estimated
12:25PM -22.4566 -47.0528 163° South  Level Estimated
12:26PM -22.5294 -47.0283 163° South  Level Estimated
12:27PM -22.6022 -47.0037 163° South  Level Estimated
12:28PM -22.6751 -46.9791 163° South  Level Estimated
12:29PM -22.7479 -46.9545 163° South  Level Estimated
12:30PM -22.8207 -46.9299 163° South  Level Estimated
12:31PM -22.8936 -46.9052 163° South  Level Estimated
12:32PM -22.9664 -46.8805 163° South  Level Estimated
12:33PM -23.0392 -46.8558 163° South  Level Estimated
12:34PM -23.1120 -46.8311 163° South  Level Estimated
12:35PM -23.1849 -46.8063 163° South  Level Estimated
12:36PM -23.2577 -46.7815 163° South  Level Estimated
12:37PM -23.3305 -46.7567 163° South  Level Estimated
12:38PM -23.4033 -46.7318 163° South  Level Estimated
12:39PM -23.4761 -46.7069 163° South  Level Estimated
12:40PM -23.5489 -46.6820 163° South  Level Estimated
12:41PM -23.6217 -46.6571 163° South  Level Estimated
12:42PM -23.6267 -46.6554 163° South  Level Estimated
12:43PM -23.6267 -46.6554 114° Southeast  Level Estimated
12:44PM -23.6267 -46.6554 114° Southeast  Level Estimated
12:45PM -23.6267 -46.6554 114° Southeast  Level Estimated
12:46PM -23.6267 -46.6554 114° Southeast  Level Estimated
12:47PM -23.6267 -46.6554 114° Southeast  Level Estimated
12:48PM -23.6267 -46.6554 114° Southeast  Level Estimated
12:49PM -23.6267 -46.6554 114° Southeast  Level Estimated
12:50PM -23.6267 -46.6554 114° Southeast  Level Estimated
12:51PM -23.6267 -46.6554 114° Southeast  Level Estimated
12:52PM -23.6267 -46.6554 114° Southeast  Level Estimated
12:53PM -23.6267 -46.6554 114° Southeast  Level Estimated
12:54PM -23.6267 -46.6554 114° Southeast  Level Estimated
12:55PM -23.6267 -46.6554 114° Southeast  Level Estimated
12:56PM -23.6267 -46.6554 114° Southeast  Level Estimated
12:57PM -23.6267 -46.6554 114° Southeast  Level Estimated